createdAt,value
2023-03-30T00:00:20.410Z,3.70
2023-03-30T00:01:20.412Z,4.10
2023-03-30T00:02:20.388Z,4.00
2023-03-30T00:03:20.547Z,4.30
2023-03-30T00:04:20.479Z,3.90
2023-03-30T00:05:20.368Z,3.80
2023-03-30T00:06:20.357Z,3.60
2023-03-30T00:07:20.336Z,4.00
2023-03-30T00:08:20.333Z,4.20
2023-03-30T00:09:20.320Z,4.10
2023-03-30T00:10:20.297Z,4.60
2023-03-30T00:11:20.283Z,4.10
2023-03-30T00:12:20.301Z,4.00
2023-03-30T00:13:20.262Z,4.30
2023-03-30T00:14:20.257Z,3.90
2023-03-30T00:15:20.245Z,4.20
2023-03-30T00:16:20.286Z,3.40
2023-03-30T00:17:20.238Z,4.10
2023-03-30T00:18:20.224Z,4.50
2023-03-30T00:19:20.624Z,3.90
2023-03-30T00:20:20.240Z,3.70
2023-03-30T00:21:20.185Z,3.60
2023-03-30T00:22:20.189Z,3.60
2023-03-30T00:23:20.162Z,4.10
2023-03-30T00:24:20.151Z,3.60
2023-03-30T00:25:20.156Z,4.00
2023-03-30T00:26:20.124Z,3.80
2023-03-30T00:27:20.117Z,3.80
2023-03-30T00:28:20.115Z,3.80
2023-03-30T00:29:20.131Z,3.50
2023-03-30T00:30:20.114Z,4.20
2023-03-30T00:31:20.107Z,4.00
2023-03-30T00:32:20.063Z,3.60
2023-03-30T00:33:25.488Z,3.50
2023-03-30T00:34:20.041Z,4.00
2023-03-30T00:35:20.036Z,3.70
2023-03-30T00:36:20.083Z,4.00
2023-03-30T00:37:20.001Z,4.10
2023-03-30T00:38:19.994Z,4.10
2023-03-30T00:39:19.985Z,3.90
2023-03-30T00:40:19.975Z,4.20
2023-03-30T00:41:19.968Z,4.20
2023-03-30T00:42:19.969Z,4.20
2023-03-30T00:43:19.942Z,3.50
2023-03-30T00:44:19.928Z,3.80
2023-03-30T00:45:19.959Z,3.80
2023-03-30T00:46:19.978Z,4.50
2023-03-30T00:47:19.914Z,4.00
2023-03-30T00:48:19.898Z,4.90
2023-03-30T00:49:19.880Z,4.30
2023-03-30T00:50:19.882Z,4.10
2023-03-30T00:51:19.846Z,4.30
2023-03-30T00:52:19.845Z,4.10
2023-03-30T00:53:19.834Z,3.60
2023-03-30T00:54:19.819Z,3.70
2023-03-30T00:55:19.811Z,3.80
2023-03-30T00:56:19.823Z,3.70
2023-03-30T00:57:19.833Z,4.10
2023-03-30T00:58:19.830Z,3.90
2023-03-30T00:59:19.760Z,3.50
2023-03-30T01:00:19.765Z,3.20
2023-03-30T01:01:19.761Z,4.10
2023-03-30T01:02:19.763Z,3.80
2023-03-30T01:03:19.779Z,3.30
2023-03-30T01:04:19.722Z,3.00
2023-03-30T01:05:19.727Z,3.40
2023-03-30T01:06:19.688Z,3.90
2023-03-30T01:07:19.674Z,3.90
2023-03-30T01:08:19.668Z,3.30
2023-03-30T01:09:19.649Z,4.10
2023-03-30T01:10:19.654Z,3.90
2023-03-30T01:11:19.628Z,3.90
2023-03-30T01:12:19.622Z,3.90
2023-03-30T01:13:19.606Z,4.10
2023-03-30T01:14:19.597Z,3.80
2023-03-30T01:15:19.658Z,4.10
2023-03-30T01:16:19.619Z,4.10
2023-03-30T01:17:19.562Z,3.70
2023-03-30T01:18:19.563Z,3.80
2023-03-30T01:19:25.518Z,3.80
2023-03-30T01:20:19.535Z,4.00
2023-03-30T01:21:19.528Z,3.70
2023-03-30T01:22:19.518Z,3.50
2023-03-30T01:23:19.508Z,3.90
2023-03-30T01:24:19.498Z,3.70
2023-03-30T01:25:19.494Z,3.40
2023-03-30T01:26:19.476Z,4.10
2023-03-30T01:27:19.448Z,3.40
2023-03-30T01:28:19.457Z,4.60
2023-03-30T01:29:20.371Z,3.90
2023-03-30T01:30:19.437Z,4.00
2023-03-30T01:31:19.428Z,4.20
2023-03-30T01:32:19.421Z,4.00
2023-03-30T01:33:19.380Z,3.60
2023-03-30T01:34:19.378Z,4.50
2023-03-30T01:35:19.402Z,4.00
2023-03-30T01:36:19.390Z,3.20
2023-03-30T01:37:19.346Z,4.10
2023-03-30T01:38:19.333Z,3.90
2023-03-30T01:39:19.330Z,3.40
2023-03-30T01:40:19.310Z,3.70
2023-03-30T01:41:19.345Z,3.90
2023-03-30T01:42:19.280Z,4.30
2023-03-30T01:43:19.286Z,3.70
2023-03-30T01:44:19.270Z,3.30
2023-03-30T01:45:19.258Z,3.70
2023-03-30T01:46:19.273Z,3.30
2023-03-30T01:47:19.297Z,4.20
2023-03-30T01:48:19.220Z,3.40
2023-03-30T01:49:19.213Z,3.60
2023-03-30T01:50:19.194Z,3.90
2023-03-30T01:51:19.188Z,3.70
2023-03-30T01:52:19.179Z,4.20
2023-03-30T01:53:19.168Z,3.70
2023-03-30T01:54:19.151Z,3.80
2023-03-30T01:55:19.155Z,4.00
2023-03-30T01:56:19.139Z,4.50
2023-03-30T01:57:19.171Z,4.10
2023-03-30T01:58:19.107Z,3.70
2023-03-30T01:59:19.102Z,3.60
2023-03-30T02:00:19.106Z,4.20
2023-03-30T02:01:19.090Z,4.00
2023-03-30T02:02:19.103Z,3.70
2023-03-30T02:03:19.265Z,3.70
2023-03-30T02:04:19.050Z,3.70
2023-03-30T02:05:19.035Z,3.60
2023-03-30T02:06:19.029Z,4.40
2023-03-30T02:07:19.027Z,3.80
2023-03-30T02:08:18.998Z,4.20
2023-03-30T02:09:19.005Z,3.80
2023-03-30T02:10:18.978Z,3.50
2023-03-30T02:11:18.968Z,4.00
2023-03-30T02:12:18.949Z,4.00
2023-03-30T02:13:18.988Z,3.80
2023-03-30T02:14:18.934Z,3.60
2023-03-30T02:15:18.937Z,4.30
2023-03-30T02:16:18.938Z,3.60
2023-03-30T02:17:18.904Z,4.50
2023-03-30T02:18:18.898Z,3.80
2023-03-30T02:19:18.892Z,4.30
2023-03-30T02:20:18.876Z,3.60
2023-03-30T02:21:18.861Z,3.90
2023-03-30T02:22:18.848Z,3.50
2023-03-30T02:23:18.851Z,3.80
2023-03-30T02:24:18.826Z,4.10
2023-03-30T02:25:18.826Z,3.40
2023-03-30T02:26:18.808Z,3.90
2023-03-30T02:27:18.805Z,3.70
2023-03-30T02:28:18.795Z,3.90
2023-03-30T02:29:18.902Z,3.60
2023-03-30T02:30:18.776Z,3.60
2023-03-30T02:31:18.777Z,3.40
2023-03-30T02:32:18.736Z,3.70
2023-03-30T02:33:18.739Z,3.90
2023-03-30T02:34:18.720Z,4.00
2023-03-30T02:35:18.712Z,3.70
2023-03-30T02:36:18.720Z,3.90
2023-03-30T02:37:18.688Z,4.10
2023-03-30T02:38:18.689Z,3.50
2023-03-30T02:39:18.668Z,4.00
2023-03-30T02:40:18.689Z,3.90
2023-03-30T02:41:18.645Z,3.60
2023-03-30T02:42:18.629Z,4.00
2023-03-30T02:43:18.629Z,4.10
2023-03-30T02:44:18.609Z,4.00
2023-03-30T02:45:18.624Z,3.50
2023-03-30T02:46:18.698Z,3.20
2023-03-30T02:47:18.585Z,3.60
2023-03-30T02:48:18.569Z,3.90
2023-03-30T02:49:18.571Z,4.40
2023-03-30T02:50:18.547Z,3.60
2023-03-30T02:51:18.545Z,3.60
2023-03-30T02:52:18.522Z,3.70
2023-03-30T02:53:18.527Z,3.90
2023-03-30T02:54:18.499Z,4.30
2023-03-30T02:55:18.492Z,3.70
2023-03-30T02:56:18.473Z,3.70
2023-03-30T02:57:18.524Z,3.80
2023-03-30T02:58:18.486Z,3.20
2023-03-30T02:59:18.457Z,4.10
2023-03-30T03:00:18.439Z,3.30
2023-03-30T03:01:18.446Z,4.20
2023-03-30T03:02:18.455Z,3.70
2023-03-30T03:03:18.502Z,3.60
2023-03-30T03:04:18.405Z,4.50
2023-03-30T03:05:18.387Z,3.70
2023-03-30T03:06:18.372Z,4.00
2023-03-30T03:07:18.365Z,3.40
2023-03-30T03:08:18.358Z,3.30
2023-03-30T03:09:18.906Z,3.60
2023-03-30T03:10:18.332Z,4.20
2023-03-30T03:11:18.321Z,3.50
2023-03-30T03:12:18.304Z,3.50
2023-03-30T03:13:18.316Z,4.30
2023-03-30T03:14:18.295Z,4.10
2023-03-30T03:15:18.276Z,3.40
2023-03-30T03:16:18.290Z,4.30
2023-03-30T03:17:18.252Z,4.00
2023-03-30T03:18:18.237Z,3.50
2023-03-30T03:19:18.245Z,3.80
2023-03-30T03:20:18.221Z,3.70
2023-03-30T03:21:18.213Z,4.20
2023-03-30T03:22:18.195Z,3.90
2023-03-30T03:23:18.191Z,4.20
2023-03-30T03:24:18.193Z,3.80
2023-03-30T03:25:18.181Z,4.80
2023-03-30T03:26:18.540Z,3.70
2023-03-30T03:27:18.141Z,3.60
2023-03-30T03:28:18.129Z,4.00
2023-03-30T03:29:18.130Z,3.80
2023-03-30T03:30:18.106Z,3.70
2023-03-30T03:31:18.204Z,3.80
2023-03-30T03:32:18.092Z,3.80
2023-03-30T03:33:18.082Z,4.40
2023-03-30T03:34:18.075Z,3.80
2023-03-30T03:35:18.058Z,3.80
2023-03-30T03:36:18.108Z,4.20
2023-03-30T03:37:18.043Z,3.80
2023-03-30T03:38:18.030Z,3.70
2023-03-30T03:39:18.025Z,4.30
2023-03-30T03:40:18.006Z,4.50
2023-03-30T03:41:17.997Z,3.50
2023-03-30T03:42:18.011Z,3.30
2023-03-30T03:43:17.985Z,4.20
2023-03-30T03:44:17.965Z,3.70
2023-03-30T03:45:17.958Z,3.50
2023-03-30T03:46:17.958Z,4.00
2023-03-30T03:47:17.932Z,3.90
2023-03-30T03:48:17.927Z,3.50
2023-03-30T03:49:17.937Z,3.80
2023-03-30T03:50:17.894Z,3.70
2023-03-30T03:51:17.889Z,3.60
2023-03-30T03:52:17.869Z,3.60
2023-03-30T03:53:17.864Z,3.20
2023-03-30T03:54:17.860Z,3.70
2023-03-30T03:55:17.877Z,3.60
2023-03-30T03:56:17.835Z,3.40
2023-03-30T03:57:17.911Z,4.00
2023-03-30T03:58:17.814Z,3.90
2023-03-30T03:59:17.810Z,3.90
2023-03-30T04:00:17.890Z,3.60
2023-03-30T04:01:17.787Z,3.70
2023-03-30T04:02:17.802Z,4.10
2023-03-30T04:03:17.790Z,3.70
2023-03-30T04:04:17.838Z,3.90
2023-03-30T04:05:17.735Z,3.40
2023-03-30T04:06:17.718Z,3.40
2023-03-30T04:07:17.720Z,4.00
2023-03-30T04:08:17.709Z,3.60
2023-03-30T04:09:17.764Z,3.70
2023-03-30T04:10:17.690Z,4.10
2023-03-30T04:11:17.692Z,4.20
2023-03-30T04:12:17.653Z,3.10
2023-03-30T04:13:17.673Z,3.70
2023-03-30T04:14:17.638Z,3.70
2023-03-30T04:15:17.645Z,3.60
2023-03-30T04:16:17.664Z,3.80
2023-03-30T04:17:17.610Z,3.60
2023-03-30T04:18:17.614Z,4.00
2023-03-30T04:19:17.593Z,3.60
2023-03-30T04:20:17.580Z,4.00
2023-03-30T04:21:17.586Z,3.70
2023-03-30T04:22:17.552Z,4.20
2023-03-30T04:23:17.557Z,4.50
2023-03-30T04:24:17.527Z,3.50
2023-03-30T04:25:17.528Z,3.70
2023-03-30T04:26:17.602Z,3.80
2023-03-30T04:27:17.520Z,3.30
2023-03-30T04:28:17.514Z,3.60
2023-03-30T04:29:17.481Z,3.80
2023-03-30T04:30:17.463Z,3.30
2023-03-30T04:31:18.100Z,3.90
2023-03-30T04:32:17.442Z,3.70
2023-03-30T04:33:17.435Z,3.70
2023-03-30T04:34:17.436Z,3.70
2023-03-30T04:35:17.426Z,4.10
2023-03-30T04:36:17.466Z,4.30
2023-03-30T04:37:17.396Z,4.40
2023-03-30T04:38:17.396Z,4.00
2023-03-30T04:39:17.380Z,4.20
2023-03-30T04:40:17.367Z,3.50
2023-03-30T04:41:17.363Z,3.20
2023-03-30T04:42:17.339Z,3.40
2023-03-30T04:43:17.337Z,4.00
2023-03-30T04:44:17.318Z,3.80
2023-03-30T04:45:17.312Z,4.50
2023-03-30T04:46:17.406Z,3.30
2023-03-30T04:47:17.288Z,4.00
2023-03-30T04:48:17.273Z,3.40
2023-03-30T04:49:17.266Z,3.60
2023-03-30T04:50:17.266Z,3.50
2023-03-30T04:51:17.256Z,3.10
2023-03-30T04:52:17.230Z,3.60
2023-03-30T04:53:17.698Z,4.00
2023-03-30T04:54:17.208Z,3.60
2023-03-30T04:55:17.201Z,3.70
2023-03-30T04:56:17.247Z,3.80
2023-03-30T04:57:17.206Z,3.70
2023-03-30T04:58:17.167Z,3.70
2023-03-30T04:59:17.178Z,3.30
2023-03-30T05:00:17.161Z,3.40
2023-03-30T05:01:17.191Z,3.50
2023-03-30T05:02:17.156Z,3.70
2023-03-30T05:03:17.355Z,3.80
2023-03-30T05:04:17.098Z,4.30
2023-03-30T05:05:17.096Z,3.60
2023-03-30T05:06:17.075Z,2.90
2023-03-30T05:07:17.078Z,4.20
2023-03-30T05:08:17.065Z,3.80
2023-03-30T05:09:17.078Z,3.60
2023-03-30T05:10:17.044Z,3.80
2023-03-30T05:11:17.026Z,3.30
2023-03-30T05:12:17.035Z,3.40
2023-03-30T05:13:17.006Z,3.60
2023-03-30T05:14:17.012Z,4.60
2023-03-30T05:15:17.002Z,3.70
2023-03-30T05:16:16.999Z,3.60
2023-03-30T05:17:17.033Z,4.10
2023-03-30T05:18:16.971Z,3.10
2023-03-30T05:19:16.944Z,3.70
2023-03-30T05:20:16.924Z,3.60
2023-03-30T05:21:16.929Z,3.80
2023-03-30T05:22:16.915Z,4.10
2023-03-30T05:23:16.906Z,3.20
2023-03-30T05:24:16.888Z,3.60
2023-03-30T05:25:16.876Z,3.50
2023-03-30T05:26:16.889Z,3.80
2023-03-30T05:27:16.853Z,3.70
2023-03-30T05:28:16.841Z,3.70
2023-03-30T05:29:16.835Z,3.60
2023-03-30T05:30:16.812Z,3.70
2023-03-30T05:31:16.836Z,3.30
2023-03-30T05:32:16.813Z,3.60
2023-03-30T05:33:16.790Z,4.10
2023-03-30T05:34:16.778Z,4.80
2023-03-30T05:35:16.760Z,3.80
2023-03-30T05:36:16.759Z,3.80
2023-03-30T05:37:16.759Z,4.40
2023-03-30T05:38:16.734Z,4.00
2023-03-30T05:39:16.719Z,4.40
2023-03-30T05:40:16.706Z,4.00
2023-03-30T05:41:16.706Z,3.80
2023-03-30T05:42:16.687Z,3.20
2023-03-30T05:43:16.668Z,3.70
2023-03-30T05:44:16.712Z,3.00
2023-03-30T05:45:16.644Z,3.50
2023-03-30T05:46:16.714Z,3.80
2023-03-30T05:47:16.627Z,3.50
2023-03-30T05:48:16.617Z,3.30
2023-03-30T05:49:16.621Z,3.10
2023-03-30T05:50:16.588Z,3.00
2023-03-30T05:51:16.592Z,3.80
2023-03-30T05:52:16.575Z,3.70
2023-03-30T05:53:16.557Z,4.30
2023-03-30T05:54:16.575Z,3.60
2023-03-30T05:55:16.562Z,3.30
2023-03-30T05:56:16.533Z,3.10
2023-03-30T05:57:16.533Z,4.00
2023-03-30T05:58:16.524Z,3.30
2023-03-30T05:59:16.509Z,3.80
2023-03-30T06:00:16.513Z,3.70
2023-03-30T06:01:16.470Z,2.70
2023-03-30T06:02:16.470Z,3.50
2023-03-30T06:03:16.584Z,3.70
2023-03-30T06:04:16.674Z,3.80
2023-03-30T06:05:16.433Z,3.70
2023-03-30T06:06:16.433Z,4.00
2023-03-30T06:07:16.404Z,3.90
2023-03-30T06:08:16.404Z,3.60
2023-03-30T06:09:16.384Z,3.60
2023-03-30T06:10:16.414Z,3.50
2023-03-30T06:11:16.366Z,3.80
2023-03-30T06:12:16.356Z,4.30
2023-03-30T06:13:16.344Z,3.60
2023-03-30T06:14:16.344Z,4.20
2023-03-30T06:15:16.318Z,3.70
2023-03-30T06:16:16.342Z,3.60
2023-03-30T06:17:16.302Z,3.10
2023-03-30T06:18:16.362Z,3.10
2023-03-30T06:19:16.379Z,3.30
2023-03-30T06:20:16.266Z,3.50
2023-03-30T06:21:16.256Z,3.40
2023-03-30T06:22:16.244Z,3.40
2023-03-30T06:23:16.255Z,3.40
2023-03-30T06:24:16.222Z,3.40
2023-03-30T06:25:16.211Z,3.50
2023-03-30T06:26:16.198Z,2.80
2023-03-30T06:27:16.216Z,3.50
2023-03-30T06:28:16.188Z,3.60
2023-03-30T06:29:16.175Z,3.60
2023-03-30T06:30:16.180Z,3.80
2023-03-30T06:31:16.166Z,3.50
2023-03-30T06:32:16.203Z,3.90
2023-03-30T06:33:16.120Z,3.80
2023-03-30T06:34:16.114Z,3.90
2023-03-30T06:35:16.118Z,3.40
2023-03-30T06:36:16.129Z,3.70
2023-03-30T06:37:16.076Z,3.70
2023-03-30T06:38:16.067Z,3.00
2023-03-30T06:39:16.059Z,3.40
2023-03-30T06:40:16.133Z,3.20
2023-03-30T06:41:16.037Z,3.20
2023-03-30T06:42:16.028Z,2.80
2023-03-30T06:43:16.017Z,3.60
2023-03-30T06:44:16.004Z,3.90
2023-03-30T06:45:16.003Z,3.60
2023-03-30T06:46:16.088Z,3.00
2023-03-30T06:47:15.915Z,4.00
2023-03-30T06:48:15.964Z,3.80
2023-03-30T06:49:15.950Z,3.10
2023-03-30T06:50:15.882Z,3.20
2023-03-30T06:51:15.950Z,4.20
2023-03-30T06:52:15.914Z,3.10
2023-03-30T06:53:15.842Z,4.00
2023-03-30T06:54:15.849Z,3.00
2023-03-30T06:55:15.843Z,3.40
2023-03-30T06:56:15.876Z,3.30
2023-03-30T06:57:15.839Z,3.50
2023-03-30T06:58:15.803Z,3.00
2023-03-30T06:59:15.796Z,3.60
2023-03-30T07:00:15.883Z,3.10
2023-03-30T07:01:16.017Z,2.90
2023-03-30T07:02:15.805Z,3.80
2023-03-30T07:03:15.737Z,3.60
2023-03-30T07:04:15.803Z,3.40
2023-03-30T07:05:15.775Z,3.50
2023-03-30T07:06:16.215Z,3.90
2023-03-30T07:07:15.756Z,3.40
2023-03-30T07:08:15.751Z,3.40
2023-03-30T07:09:15.720Z,3.60
2023-03-30T07:10:15.724Z,3.80
2023-03-30T07:11:15.708Z,3.70
2023-03-30T07:12:15.712Z,3.60
2023-03-30T07:13:15.688Z,4.50
2023-03-30T07:14:15.677Z,3.80
2023-03-30T07:15:15.665Z,3.30
2023-03-30T07:16:15.690Z,3.60
2023-03-30T07:17:15.657Z,3.60
2023-03-30T07:18:15.667Z,3.50
2023-03-30T07:19:15.628Z,3.20
2023-03-30T07:20:15.631Z,4.20
2023-03-30T07:21:15.602Z,4.00
2023-03-30T07:22:15.584Z,3.90
2023-03-30T07:23:15.577Z,3.90
2023-03-30T07:24:15.590Z,3.10
2023-03-30T07:25:15.578Z,3.40
2023-03-30T07:26:15.574Z,3.50
2023-03-30T07:27:15.545Z,3.40
2023-03-30T07:28:15.838Z,3.00
2023-03-30T07:29:15.693Z,4.00
2023-03-30T07:30:21.703Z,3.20
2023-03-30T07:31:15.511Z,4.30
2023-03-30T07:32:15.532Z,3.90
2023-03-30T07:33:15.496Z,4.40
2023-03-30T07:34:15.457Z,3.80
2023-03-30T07:35:15.449Z,4.00
2023-03-30T07:36:15.511Z,3.60
2023-03-30T07:37:20.230Z,3.80
2023-03-30T07:38:15.421Z,4.00
2023-03-30T07:39:15.411Z,3.10
2023-03-30T07:40:15.433Z,3.10
2023-03-30T07:41:15.424Z,3.70
2023-03-30T07:42:15.381Z,4.50
2023-03-30T07:43:15.351Z,3.50
2023-03-30T07:44:15.358Z,3.60
2023-03-30T07:45:16.612Z,3.40
2023-03-30T07:46:15.388Z,4.50
2023-03-30T07:47:15.310Z,3.70
2023-03-30T07:48:15.393Z,3.50
2023-03-30T07:49:15.581Z,3.20
2023-03-30T07:50:15.295Z,4.00
2023-03-30T07:51:15.269Z,4.20
2023-03-30T07:52:15.322Z,3.90
2023-03-30T07:53:15.190Z,3.80
2023-03-30T07:54:15.243Z,3.10
2023-03-30T07:55:15.240Z,4.00
2023-03-30T07:56:15.231Z,4.70
2023-03-30T07:57:15.231Z,4.00
2023-03-30T07:58:15.228Z,3.30
2023-03-30T07:59:15.191Z,4.20
2023-03-30T08:00:15.198Z,2.80
2023-03-30T08:01:15.305Z,4.40
2023-03-30T08:02:15.197Z,4.20
2023-03-30T08:03:15.272Z,3.90
2023-03-30T08:04:15.223Z,4.70
2023-03-30T08:05:15.134Z,4.10
2023-03-30T08:06:15.101Z,4.30
2023-03-30T08:07:15.095Z,5.00
2023-03-30T08:08:15.092Z,3.90
2023-03-30T08:09:15.075Z,3.60
2023-03-30T08:10:15.067Z,3.70
2023-03-30T08:11:15.093Z,5.50
2023-03-30T08:12:15.094Z,3.80
2023-03-30T08:13:15.017Z,4.00
2023-03-30T08:14:15.019Z,4.30
2023-03-30T08:15:14.999Z,5.40
2023-03-30T08:16:14.963Z,4.60
2023-03-30T08:17:14.980Z,4.20
2023-03-30T08:18:14.964Z,4.20
2023-03-30T08:19:14.914Z,3.30
2023-03-30T08:20:14.953Z,4.20
2023-03-30T08:21:14.938Z,5.10
2023-03-30T08:22:14.880Z,4.30
2023-03-30T08:23:14.856Z,5.00
2023-03-30T08:24:14.867Z,4.40
2023-03-30T08:25:14.850Z,4.20
2023-03-30T08:26:14.840Z,3.50
2023-03-30T08:27:14.870Z,3.60
2023-03-30T08:28:14.866Z,4.00
2023-03-30T08:29:14.806Z,3.40
2023-03-30T08:30:14.795Z,4.60
2023-03-30T08:31:14.807Z,4.40
2023-03-30T08:32:14.770Z,4.00
2023-03-30T08:33:14.859Z,3.50
2023-03-30T08:34:14.741Z,4.10
2023-03-30T08:35:14.737Z,2.90
2023-03-30T08:36:14.784Z,3.40
2023-03-30T08:37:14.763Z,4.10
2023-03-30T08:38:14.717Z,4.30
2023-03-30T08:39:14.680Z,3.90
2023-03-30T08:40:15.930Z,4.00
2023-03-30T08:41:14.660Z,3.70
2023-03-30T08:42:14.669Z,3.70
2023-03-30T08:43:14.690Z,3.30
2023-03-30T08:44:14.646Z,3.60
2023-03-30T08:45:14.625Z,4.00
2023-03-30T08:46:14.700Z,4.40
2023-03-30T08:47:14.661Z,4.40
2023-03-30T08:48:14.610Z,3.30
2023-03-30T08:49:14.571Z,4.50
2023-03-30T08:50:14.571Z,3.90
2023-03-30T08:51:14.554Z,3.80
2023-03-30T08:52:14.555Z,4.90
2023-03-30T08:53:14.527Z,4.10
2023-03-30T08:54:14.551Z,4.80
2023-03-30T08:55:14.541Z,4.40
2023-03-30T08:56:14.503Z,4.60
2023-03-30T08:57:14.533Z,3.50
2023-03-30T08:58:14.538Z,5.10
2023-03-30T08:59:14.516Z,3.70
2023-03-30T09:00:14.509Z,3.80
2023-03-30T09:01:14.515Z,5.10
2023-03-30T09:02:14.452Z,3.70
2023-03-30T09:03:14.478Z,4.20
2023-03-30T09:04:14.411Z,3.80
2023-03-30T09:05:14.484Z,5.00
2023-03-30T09:06:14.393Z,3.90
2023-03-30T09:07:14.457Z,5.10
2023-03-30T09:08:14.367Z,4.20
2023-03-30T09:09:14.397Z,4.50
2023-03-30T09:10:14.401Z,3.70
2023-03-30T09:11:14.412Z,4.10
2023-03-30T09:12:14.381Z,4.20
2023-03-30T09:13:14.308Z,4.40
2023-03-30T09:14:14.325Z,4.00
2023-03-30T09:15:14.351Z,4.70
2023-03-30T09:16:14.296Z,4.40
2023-03-30T09:17:14.330Z,4.70
2023-03-30T09:18:14.302Z,3.90
2023-03-30T09:19:14.250Z,5.20
2023-03-30T09:20:14.249Z,3.70
2023-03-30T09:21:19.880Z,3.80
2023-03-30T09:22:14.215Z,4.50
2023-03-30T09:23:14.210Z,4.50
2023-03-30T09:24:14.205Z,4.30
2023-03-30T09:25:14.196Z,3.70
2023-03-30T09:26:14.173Z,5.10
2023-03-30T09:27:14.154Z,4.10
2023-03-30T09:28:14.214Z,5.10
2023-03-30T09:29:14.224Z,4.20
2023-03-30T09:30:14.192Z,5.20
2023-03-30T09:31:14.138Z,3.80
2023-03-30T09:32:14.224Z,5.40
2023-03-30T09:33:14.098Z,3.60
2023-03-30T09:34:14.362Z,4.00
2023-03-30T09:35:14.065Z,4.80
2023-03-30T09:36:14.123Z,5.20
2023-03-30T09:37:14.053Z,4.90
2023-03-30T09:38:14.659Z,4.60
2023-03-30T09:39:14.043Z,4.60
2023-03-30T09:40:14.018Z,5.70
2023-03-30T09:41:14.010Z,4.80
2023-03-30T09:42:14.002Z,4.70
2023-03-30T09:43:13.986Z,5.10
2023-03-30T09:44:13.975Z,5.70
2023-03-30T09:45:13.972Z,5.20
2023-03-30T09:46:14.009Z,5.30
2023-03-30T09:47:13.949Z,5.10
2023-03-30T09:48:13.974Z,5.90
2023-03-30T09:49:13.943Z,5.30
2023-03-30T09:50:13.921Z,6.80
2023-03-30T09:51:13.893Z,4.30
2023-03-30T09:52:13.897Z,4.40
2023-03-30T09:53:13.873Z,6.00
2023-03-30T09:54:13.866Z,4.50
2023-03-30T09:55:13.862Z,3.80
2023-03-30T09:56:13.847Z,5.60
2023-03-30T09:57:13.888Z,4.40
2023-03-30T09:58:13.827Z,4.80
2023-03-30T09:59:13.817Z,3.80
2023-03-30T10:00:13.819Z,4.70
2023-03-30T10:01:13.808Z,5.00
2023-03-30T10:02:13.797Z,5.10
2023-03-30T10:03:14.002Z,3.70
2023-03-30T10:04:13.932Z,7.20
2023-03-30T10:05:13.754Z,5.40
2023-03-30T10:06:13.761Z,5.30
2023-03-30T10:07:18.635Z,5.00
2023-03-30T10:08:13.724Z,3.50
2023-03-30T10:09:13.706Z,4.70
2023-03-30T10:10:13.690Z,4.40
2023-03-30T10:11:13.701Z,4.20
2023-03-30T10:12:13.670Z,4.60
2023-03-30T10:13:14.178Z,5.90
2023-03-30T10:14:13.647Z,5.30
2023-03-30T10:15:13.652Z,4.80
2023-03-30T10:16:13.799Z,5.60
2023-03-30T10:17:13.621Z,4.20
2023-03-30T10:18:13.638Z,4.50
2023-03-30T10:19:13.597Z,5.10
2023-03-30T10:20:14.379Z,5.00
2023-03-30T10:21:13.614Z,6.80
2023-03-30T10:22:13.576Z,5.50
2023-03-30T10:23:13.559Z,6.00
2023-03-30T10:24:13.545Z,5.20
2023-03-30T10:25:13.555Z,5.10
2023-03-30T10:26:13.535Z,5.60
2023-03-30T10:27:13.541Z,5.00
2023-03-30T10:28:13.498Z,4.60
2023-03-30T10:29:13.511Z,4.60
2023-03-30T10:30:13.493Z,5.00
2023-03-30T10:31:13.519Z,3.80
2023-03-30T10:32:13.471Z,4.70
2023-03-30T10:33:13.453Z,4.50
2023-03-30T10:34:13.474Z,5.00
2023-03-30T10:35:13.474Z,7.20
2023-03-30T10:36:13.433Z,5.80
2023-03-30T10:37:13.438Z,4.60
2023-03-30T10:38:13.399Z,4.90
2023-03-30T10:39:13.392Z,6.10
2023-03-30T10:40:13.401Z,4.90
2023-03-30T10:41:13.368Z,5.10
2023-03-30T10:42:13.401Z,5.20
2023-03-30T10:43:13.361Z,4.70
2023-03-30T10:44:13.329Z,4.30
2023-03-30T10:45:13.331Z,5.30
2023-03-30T10:46:19.544Z,5.50
2023-03-30T10:47:13.397Z,5.10
2023-03-30T10:48:13.321Z,4.90
2023-03-30T10:49:13.306Z,5.00
2023-03-30T10:50:13.285Z,4.20
2023-03-30T10:51:13.262Z,4.20
2023-03-30T10:52:13.261Z,6.70
2023-03-30T10:53:13.244Z,4.50
2023-03-30T10:54:13.250Z,4.70
2023-03-30T10:55:13.233Z,4.00
2023-03-30T10:56:13.199Z,4.30
2023-03-30T10:57:13.247Z,4.10
2023-03-30T10:58:13.178Z,3.80
2023-03-30T10:59:13.179Z,4.80
2023-03-30T11:00:13.164Z,3.50
2023-03-30T11:01:13.302Z,5.70
2023-03-30T11:02:13.137Z,4.80
2023-03-30T11:03:13.212Z,5.20
2023-03-30T11:04:23.195Z,4.50
2023-03-30T11:05:13.131Z,5.20
2023-03-30T11:06:13.095Z,5.20
2023-03-30T11:07:13.097Z,4.10
2023-03-30T11:08:13.086Z,5.00
2023-03-30T11:09:13.070Z,4.20
2023-03-30T11:10:13.065Z,4.50
2023-03-30T11:11:13.045Z,4.60
2023-03-30T11:12:13.046Z,4.70
2023-03-30T11:13:13.030Z,3.90
2023-03-30T11:14:13.029Z,3.40
2023-03-30T11:15:13.003Z,4.50
2023-03-30T11:16:13.035Z,4.00
2023-03-30T11:17:13.052Z,5.10
2023-03-30T11:18:13.705Z,5.80
2023-03-30T11:19:13.040Z,4.30
2023-03-30T11:20:12.947Z,4.30
2023-03-30T11:21:12.970Z,5.50
2023-03-30T11:22:12.938Z,4.40
2023-03-30T11:23:12.917Z,3.20
2023-03-30T11:24:12.899Z,3.80
2023-03-30T11:25:12.895Z,4.70
2023-03-30T11:26:12.893Z,4.80
2023-03-30T11:27:12.867Z,5.10
2023-03-30T11:28:12.871Z,4.40
2023-03-30T11:29:12.885Z,4.30
2023-03-30T11:30:12.838Z,4.10
2023-03-30T11:31:12.841Z,4.60
2023-03-30T11:32:12.910Z,4.50
2023-03-30T11:33:12.870Z,4.10
2023-03-30T11:34:12.840Z,4.10
2023-03-30T11:35:12.792Z,4.80
2023-03-30T11:36:12.802Z,4.30
2023-03-30T11:37:12.765Z,5.30
2023-03-30T11:38:12.795Z,4.30
2023-03-30T11:39:21.630Z,4.30
2023-03-30T11:40:12.731Z,4.90
2023-03-30T11:41:12.732Z,4.60
2023-03-30T11:42:12.708Z,4.80
2023-03-30T11:43:12.707Z,5.20
2023-03-30T11:44:12.698Z,5.10
2023-03-30T11:45:12.687Z,5.20
2023-03-30T11:46:12.700Z,4.10
2023-03-30T11:47:12.657Z,4.80
2023-03-30T11:48:12.708Z,4.20
2023-03-30T11:50:12.636Z,5.30
2023-03-30T11:51:12.627Z,4.20
2023-03-30T11:52:12.628Z,4.90
2023-03-30T11:53:12.610Z,4.90
2023-03-30T11:54:12.587Z,4.60
2023-03-30T11:55:12.590Z,4.80
2023-03-30T11:56:12.564Z,4.60
2023-03-30T11:57:12.596Z,5.00
2023-03-30T11:58:12.553Z,5.40
2023-03-30T11:59:12.534Z,5.30
2023-03-30T12:00:12.523Z,4.70
2023-03-30T12:01:12.538Z,4.50
2023-03-30T12:02:12.511Z,4.20
2023-03-30T12:03:12.690Z,5.80
2023-03-30T12:04:12.585Z,5.50
2023-03-30T12:05:12.539Z,5.00
2023-03-30T12:06:12.556Z,4.70
2023-03-30T12:07:12.524Z,5.30
2023-03-30T12:08:12.486Z,5.30
2023-03-30T12:09:12.491Z,4.90
2023-03-30T12:10:12.474Z,5.00
2023-03-30T12:11:12.466Z,6.00
2023-03-30T12:12:12.443Z,5.50
2023-03-30T12:13:12.439Z,6.20
2023-03-30T12:14:12.432Z,5.00
2023-03-30T12:15:12.436Z,4.50
2023-03-30T12:16:12.460Z,5.30
2023-03-30T12:17:12.442Z,6.00
2023-03-30T12:18:12.438Z,4.40
2023-03-30T12:19:12.404Z,4.80
2023-03-30T12:20:12.359Z,6.70
2023-03-30T12:21:12.373Z,6.00
2023-03-30T12:22:12.344Z,4.70
2023-03-30T12:23:12.740Z,4.70
2023-03-30T12:24:12.333Z,5.00
2023-03-30T12:25:12.319Z,4.50
2023-03-30T12:26:12.294Z,5.40
2023-03-30T12:27:12.305Z,4.10
2023-03-30T12:28:12.314Z,5.10
2023-03-30T12:29:56.301Z,4.80
2023-03-30T12:30:12.262Z,5.10
2023-03-30T12:31:12.296Z,3.80
2023-03-30T12:32:12.277Z,4.90
2023-03-30T12:33:12.316Z,5.40
2023-03-30T12:34:12.212Z,5.80
2023-03-30T12:35:12.270Z,4.00
2023-03-30T12:36:12.216Z,5.30
2023-03-30T12:37:12.191Z,4.50
2023-03-30T12:38:12.169Z,5.00
2023-03-30T12:39:12.169Z,5.90
2023-03-30T12:40:12.146Z,5.00
2023-03-30T12:41:12.140Z,5.00
2023-03-30T12:42:12.139Z,6.10
2023-03-30T12:43:12.120Z,5.20
2023-03-30T12:44:12.099Z,4.60
2023-03-30T12:45:12.109Z,4.80
2023-03-30T12:46:12.184Z,4.90
2023-03-30T12:47:12.402Z,6.10
2023-03-30T12:48:12.082Z,4.40
2023-03-30T12:49:12.073Z,6.50
2023-03-30T12:50:12.060Z,6.90
2023-03-30T12:51:12.043Z,6.60
2023-03-30T12:52:11.984Z,6.30
2023-03-30T12:53:11.991Z,7.70
2023-03-30T12:54:11.952Z,5.70
2023-03-30T12:55:11.947Z,6.80
2023-03-30T12:56:11.983Z,7.80
2023-03-30T12:57:11.987Z,6.70
2023-03-30T12:58:11.955Z,6.30
2023-03-30T12:59:11.983Z,6.80
2023-03-30T13:00:12.074Z,6.20
2023-03-30T13:01:11.985Z,7.60
2023-03-30T13:02:12.068Z,5.90
2023-03-30T13:03:11.965Z,6.00
2023-03-30T13:04:11.943Z,5.00
2023-03-30T13:05:11.887Z,7.00
2023-03-30T13:06:11.870Z,7.20
2023-03-30T13:07:11.880Z,5.60
2023-03-30T13:08:11.850Z,6.60
2023-03-30T13:09:11.867Z,6.80
2023-03-30T13:10:11.836Z,7.30
2023-03-30T13:11:11.821Z,6.10
2023-03-30T13:12:11.815Z,7.50
2023-03-30T13:13:11.821Z,6.40
2023-03-30T13:14:11.782Z,5.70
2023-03-30T13:15:11.778Z,5.50
2023-03-30T13:16:14.009Z,5.20
2023-03-30T13:17:11.817Z,5.40
2023-03-30T13:18:11.782Z,6.20
2023-03-30T13:19:11.730Z,6.10